sensor_id;sensor_type;location;lat;lon;timestamp;temperature;humidity
19256;DHT22;9762;52.490;13.410;2023-04-24T00:00:46;16.40;91.50
19256;DHT22;9762;52.490;13.410;2023-04-24T00:03:12;16.40;91.80
19256;DHT22;9762;52.490;13.410;2023-04-24T00:05:38;16.40;92.20
19256;DHT22;9762;52.490;13.410;2023-04-24T00:08:05;16.40;92.90
19256;DHT22;9762;52.490;13.410;2023-04-24T00:10:31;16.40;93.10
19256;DHT22;9762;52.490;13.410;2023-04-24T00:12:57;16.30;93.80
19256;DHT22;9762;52.490;13.410;2023-04-24T00:15:22;16.30;94.20
19256;DHT22;9762;52.490;13.410;2023-04-24T00:17:48;16.30;94.80
19256;DHT22;9762;52.490;13.410;2023-04-24T00:20:15;16.30;95.60
19256;DHT22;9762;52.490;13.410;2023-04-24T00:22:41;16.30;96.30
19256;DHT22;9762;52.490;13.410;2023-04-24T00:25:06;16.30;97.00
19256;DHT22;9762;52.490;13.410;2023-04-24T00:27:32;16.30;97.20
19256;DHT22;9762;52.490;13.410;2023-04-24T00:29:58;16.20;97.20
19256;DHT22;9762;52.490;13.410;2023-04-24T00:32:24;16.20;97.10
19256;DHT22;9762;52.490;13.410;2023-04-24T00:34:49;16.20;97.50
19256;DHT22;9762;52.490;13.410;2023-04-24T00:37:15;16.20;97.60
19256;DHT22;9762;52.490;13.410;2023-04-24T00:39:41;16.10;98.10
19256;DHT22;9762;52.490;13.410;2023-04-24T00:42:06;16.10;98.60
19256;DHT22;9762;52.490;13.410;2023-04-24T00:44:35;16.10;98.80
19256;DHT22;9762;52.490;13.410;2023-04-24T00:47:01;16.10;98.90
19256;DHT22;9762;52.490;13.410;2023-04-24T00:49:27;15.90;99.50
19256;DHT22;9762;52.490;13.410;2023-04-24T00:51:53;16.00;99.70
19256;DHT22;9762;52.490;13.410;2023-04-24T00:54:19;16.00;99.30
19256;DHT22;9762;52.490;13.410;2023-04-24T00:56:45;16.00;98.90
19256;DHT22;9762;52.490;13.410;2023-04-24T00:59:12;16.00;99.00
19256;DHT22;9762;52.490;13.410;2023-04-24T01:01:39;16.00;98.90
19256;DHT22;9762;52.490;13.410;2023-04-24T01:04:09;16.00;98.30
19256;DHT22;9762;52.490;13.410;2023-04-24T01:06:36;16.00;98.10
19256;DHT22;9762;52.490;13.410;2023-04-24T01:09:03;16.00;98.10
19256;DHT22;9762;52.490;13.410;2023-04-24T01:11:30;16.00;97.80
19256;DHT22;9762;52.490;13.410;2023-04-24T01:13:56;16.00;97.90
19256;DHT22;9762;52.490;13.410;2023-04-24T01:16:22;16.00;97.70
19256;DHT22;9762;52.490;13.410;2023-04-24T01:18:47;16.00;97.60
19256;DHT22;9762;52.490;13.410;2023-04-24T01:21:15;16.10;97.80
19256;DHT22;9762;52.490;13.410;2023-04-24T01:23:45;16.10;97.70
19256;DHT22;9762;52.490;13.410;2023-04-24T01:26:11;16.00;97.80
19256;DHT22;9762;52.490;13.410;2023-04-24T01:28:37;16.00;97.90
19256;DHT22;9762;52.490;13.410;2023-04-24T01:31:03;16.00;98.10
19256;DHT22;9762;52.490;13.410;2023-04-24T01:33:29;16.10;98.10
19256;DHT22;9762;52.490;13.410;2023-04-24T01:35:54;16.00;98.00
19256;DHT22;9762;52.490;13.410;2023-04-24T01:38:20;16.10;98.10
19256;DHT22;9762;52.490;13.410;2023-04-24T01:40:46;16.10;98.60
19256;DHT22;9762;52.490;13.410;2023-04-24T01:43:12;16.10;98.20
19256;DHT22;9762;52.490;13.410;2023-04-24T01:45:38;16.10;98.20
19256;DHT22;9762;52.490;13.410;2023-04-24T01:48:04;16.10;98.10
19256;DHT22;9762;52.490;13.410;2023-04-24T01:50:30;16.10;98.10
19256;DHT22;9762;52.490;13.410;2023-04-24T01:52:56;16.10;98.10
19256;DHT22;9762;52.490;13.410;2023-04-24T01:55:21;16.20;98.30
19256;DHT22;9762;52.490;13.410;2023-04-24T01:57:47;16.20;98.20
19256;DHT22;9762;52.490;13.410;2023-04-24T02:00:13;16.10;98.10
19256;DHT22;9762;52.490;13.410;2023-04-24T02:02:40;16.10;98.20
19256;DHT22;9762;52.490;13.410;2023-04-24T02:05:07;16.20;98.20
19256;DHT22;9762;52.490;13.410;2023-04-24T02:07:33;16.20;98.20
19256;DHT22;9762;52.490;13.410;2023-04-24T02:09:58;16.10;98.20
19256;DHT22;9762;52.490;13.410;2023-04-24T02:12:24;16.20;98.20
19256;DHT22;9762;52.490;13.410;2023-04-24T02:14:50;16.20;98.40
19256;DHT22;9762;52.490;13.410;2023-04-24T02:17:16;16.20;98.40
19256;DHT22;9762;52.490;13.410;2023-04-24T02:19:42;16.20;98.60
19256;DHT22;9762;52.490;13.410;2023-04-24T02:22:07;16.20;98.70
19256;DHT22;9762;52.490;13.410;2023-04-24T02:24:33;16.20;98.90
19256;DHT22;9762;52.490;13.410;2023-04-24T02:26:59;16.20;98.90
19256;DHT22;9762;52.490;13.410;2023-04-24T02:29:25;16.20;99.00
19256;DHT22;9762;52.490;13.410;2023-04-24T02:31:51;16.20;98.90
19256;DHT22;9762;52.490;13.410;2023-04-24T02:34:16;16.20;98.90
19256;DHT22;9762;52.490;13.410;2023-04-24T02:36:42;16.20;99.40
19256;DHT22;9762;52.490;13.410;2023-04-24T02:39:08;16.30;99.10
19256;DHT22;9762;52.490;13.410;2023-04-24T02:41:33;16.20;99.30
19256;DHT22;9762;52.490;13.410;2023-04-24T02:43:59;16.20;99.60
19256;DHT22;9762;52.490;13.410;2023-04-24T02:46:25;16.10;99.70
19256;DHT22;9762;52.490;13.410;2023-04-24T02:48:51;16.10;99.80
19256;DHT22;9762;52.490;13.410;2023-04-24T02:51:16;16.10;99.70
19256;DHT22;9762;52.490;13.410;2023-04-24T02:53:42;16.10;99.80
19256;DHT22;9762;52.490;13.410;2023-04-24T02:56:08;16.10;99.80
19256;DHT22;9762;52.490;13.410;2023-04-24T02:58:33;16.10;99.70
19256;DHT22;9762;52.490;13.410;2023-04-24T03:00:59;16.10;99.80
19256;DHT22;9762;52.490;13.410;2023-04-24T03:03:26;16.10;99.80
19256;DHT22;9762;52.490;13.410;2023-04-24T03:05:51;16.10;99.90
19256;DHT22;9762;52.490;13.410;2023-04-24T03:08:17;16.10;99.90
19256;DHT22;9762;52.490;13.410;2023-04-24T03:10:43;16.10;99.90
19256;DHT22;9762;52.490;13.410;2023-04-24T03:13:09;16.10;99.90
19256;DHT22;9762;52.490;13.410;2023-04-24T03:15:34;16.10;99.90
19256;DHT22;9762;52.490;13.410;2023-04-24T03:18:00;16.10;99.90
19256;DHT22;9762;52.490;13.410;2023-04-24T03:20:26;16.10;99.90
19256;DHT22;9762;52.490;13.410;2023-04-24T03:22:51;16.10;99.90
19256;DHT22;9762;52.490;13.410;2023-04-24T03:25:17;16.10;99.90
19256;DHT22;9762;52.490;13.410;2023-04-24T03:27:43;16.10;99.90
19256;DHT22;9762;52.490;13.410;2023-04-24T03:30:09;16.10;99.90
19256;DHT22;9762;52.490;13.410;2023-04-24T03:32:34;16.00;99.90
19256;DHT22;9762;52.490;13.410;2023-04-24T03:35:00;16.00;99.90
19256;DHT22;9762;52.490;13.410;2023-04-24T03:37:26;16.10;99.90
19256;DHT22;9762;52.490;13.410;2023-04-24T03:39:52;16.10;99.90
19256;DHT22;9762;52.490;13.410;2023-04-24T03:42:17;16.10;99.90
19256;DHT22;9762;52.490;13.410;2023-04-24T03:44:43;16.10;99.90
19256;DHT22;9762;52.490;13.410;2023-04-24T03:47:08;16.10;99.90
19256;DHT22;9762;52.490;13.410;2023-04-24T03:49:34;16.20;99.90
19256;DHT22;9762;52.490;13.410;2023-04-24T03:52:00;16.20;99.90
19256;DHT22;9762;52.490;13.410;2023-04-24T03:54:26;16.20;99.90
19256;DHT22;9762;52.490;13.410;2023-04-24T03:56:52;16.20;99.90
19256;DHT22;9762;52.490;13.410;2023-04-24T03:59:17;16.20;99.90
19256;DHT22;9762;52.490;13.410;2023-04-24T04:01:43;16.20;99.90
19256;DHT22;9762;52.490;13.410;2023-04-24T04:04:09;16.20;99.90
19256;DHT22;9762;52.490;13.410;2023-04-24T04:06:34;16.20;99.90
19256;DHT22;9762;52.490;13.410;2023-04-24T04:09:01;16.20;99.90
19256;DHT22;9762;52.490;13.410;2023-04-24T04:11:27;16.20;99.90
19256;DHT22;9762;52.490;13.410;2023-04-24T04:13:52;16.20;99.90
19256;DHT22;9762;52.490;13.410;2023-04-24T04:16:18;16.20;99.90
19256;DHT22;9762;52.490;13.410;2023-04-24T04:18:44;16.20;99.90
19256;DHT22;9762;52.490;13.410;2023-04-24T04:21:11;16.20;99.90
19256;DHT22;9762;52.490;13.410;2023-04-24T04:23:36;16.20;99.90
19256;DHT22;9762;52.490;13.410;2023-04-24T04:26:03;16.20;99.90
19256;DHT22;9762;52.490;13.410;2023-04-24T04:28:29;16.30;99.90
19256;DHT22;9762;52.490;13.410;2023-04-24T04:30:56;16.30;99.90
19256;DHT22;9762;52.490;13.410;2023-04-24T04:33:23;16.30;99.90
19256;DHT22;9762;52.490;13.410;2023-04-24T04:35:49;16.20;99.90
19256;DHT22;9762;52.490;13.410;2023-04-24T04:38:15;16.20;99.90
19256;DHT22;9762;52.490;13.410;2023-04-24T04:40:42;16.30;99.90
19256;DHT22;9762;52.490;13.410;2023-04-24T04:43:08;16.90;99.90
19256;DHT22;9762;52.490;13.410;2023-04-24T04:45:33;16.20;99.90
19256;DHT22;9762;52.490;13.410;2023-04-24T04:48:00;16.20;99.90
19256;DHT22;9762;52.490;13.410;2023-04-24T04:50:27;16.20;99.90
19256;DHT22;9762;52.490;13.410;2023-04-24T04:52:53;16.20;99.90
19256;DHT22;9762;52.490;13.410;2023-04-24T04:55:18;16.20;99.90
19256;DHT22;9762;52.490;13.410;2023-04-24T04:57:47;16.30;99.90
19256;DHT22;9762;52.490;13.410;2023-04-24T05:00:13;16.30;99.90
19256;DHT22;9762;52.490;13.410;2023-04-24T05:02:39;16.30;99.90
19256;DHT22;9762;52.490;13.410;2023-04-24T05:05:05;16.40;99.90
19256;DHT22;9762;52.490;13.410;2023-04-24T05:07:31;16.30;99.90
19256;DHT22;9762;52.490;13.410;2023-04-24T05:09:57;16.40;99.90
19256;DHT22;9762;52.490;13.410;2023-04-24T05:12:23;16.40;99.90
19256;DHT22;9762;52.490;13.410;2023-04-24T05:14:48;16.40;99.90
19256;DHT22;9762;52.490;13.410;2023-04-24T05:17:14;16.40;99.90
19256;DHT22;9762;52.490;13.410;2023-04-24T05:19:40;16.40;99.90
19256;DHT22;9762;52.490;13.410;2023-04-24T05:22:05;16.80;99.90
19256;DHT22;9762;52.490;13.410;2023-04-24T05:24:35;16.50;99.90
19256;DHT22;9762;52.490;13.410;2023-04-24T05:27:02;16.50;99.90
19256;DHT22;9762;52.490;13.410;2023-04-24T05:29:28;16.40;99.90
19256;DHT22;9762;52.490;13.410;2023-04-24T05:31:56;16.40;99.90
19256;DHT22;9762;52.490;13.410;2023-04-24T05:34:22;16.40;99.90
19256;DHT22;9762;52.490;13.410;2023-04-24T05:36:48;16.30;99.90
19256;DHT22;9762;52.490;13.410;2023-04-24T05:39:14;16.30;99.90
19256;DHT22;9762;52.490;13.410;2023-04-24T05:41:40;16.40;99.90
19256;DHT22;9762;52.490;13.410;2023-04-24T05:44:06;16.40;99.90
19256;DHT22;9762;52.490;13.410;2023-04-24T05:46:31;16.40;99.80
19256;DHT22;9762;52.490;13.410;2023-04-24T05:48:57;16.30;99.80
19256;DHT22;9762;52.490;13.410;2023-04-24T05:51:23;16.30;99.80
19256;DHT22;9762;52.490;13.410;2023-04-24T05:53:49;16.30;99.70
19256;DHT22;9762;52.490;13.410;2023-04-24T05:56:15;16.30;99.70
19256;DHT22;9762;52.490;13.410;2023-04-24T05:58:41;16.20;99.60
19256;DHT22;9762;52.490;13.410;2023-04-24T06:01:06;16.20;99.60
19256;DHT22;9762;52.490;13.410;2023-04-24T06:03:32;16.20;99.80
19256;DHT22;9762;52.490;13.410;2023-04-24T06:05:58;16.20;99.70
19256;DHT22;9762;52.490;13.410;2023-04-24T06:08:23;16.30;99.60
19256;DHT22;9762;52.490;13.410;2023-04-24T06:10:49;16.30;99.50
19256;DHT22;9762;52.490;13.410;2023-04-24T06:13:15;16.30;99.30
19256;DHT22;9762;52.490;13.410;2023-04-24T06:15:41;16.30;99.50
19256;DHT22;9762;52.490;13.410;2023-04-24T06:18:07;16.30;99.30
19256;DHT22;9762;52.490;13.410;2023-04-24T06:20:33;16.30;99.40
19256;DHT22;9762;52.490;13.410;2023-04-24T06:22:58;16.20;99.30
19256;DHT22;9762;52.490;13.410;2023-04-24T06:25:27;16.30;99.40
19256;DHT22;9762;52.490;13.410;2023-04-24T06:27:53;16.30;99.20
19256;DHT22;9762;52.490;13.410;2023-04-24T06:30:19;16.30;99.10
19256;DHT22;9762;52.490;13.410;2023-04-24T06:32:45;16.30;99.00
19256;DHT22;9762;52.490;13.410;2023-04-24T06:35:11;16.00;98.90
19256;DHT22;9762;52.490;13.410;2023-04-24T06:37:41;16.30;99.00
19256;DHT22;9762;52.490;13.410;2023-04-24T06:40:07;16.40;99.00
19256;DHT22;9762;52.490;13.410;2023-04-24T06:42:33;16.40;98.70
19256;DHT22;9762;52.490;13.410;2023-04-24T06:45:00;16.50;98.60
19256;DHT22;9762;52.490;13.410;2023-04-24T06:47:26;16.50;98.40
19256;DHT22;9762;52.490;13.410;2023-04-24T06:49:52;16.70;98.40
19256;DHT22;9762;52.490;13.410;2023-04-24T06:52:18;16.70;97.90
19256;DHT22;9762;52.490;13.410;2023-04-24T06:54:44;16.70;97.70
19256;DHT22;9762;52.490;13.410;2023-04-24T06:57:09;16.90;97.60
19256;DHT22;9762;52.490;13.410;2023-04-24T06:59:36;16.90;97.30
19256;DHT22;9762;52.490;13.410;2023-04-24T07:02:01;17.00;97.10
19256;DHT22;9762;52.490;13.410;2023-04-24T07:04:27;17.00;96.90
19256;DHT22;9762;52.490;13.410;2023-04-24T07:06:53;17.10;96.40
19256;DHT22;9762;52.490;13.410;2023-04-24T07:09:24;17.20;96.20
19256;DHT22;9762;52.490;13.410;2023-04-24T07:11:51;17.20;95.80
19256;DHT22;9762;52.490;13.410;2023-04-24T07:14:17;17.20;95.90
19256;DHT22;9762;52.490;13.410;2023-04-24T07:16:43;17.30;95.70
19256;DHT22;9762;52.490;13.410;2023-04-24T07:19:09;17.30;95.40
19256;DHT22;9762;52.490;13.410;2023-04-24T07:21:34;17.30;95.90
19256;DHT22;9762;52.490;13.410;2023-04-24T07:24:00;17.40;95.50
19256;DHT22;9762;52.490;13.410;2023-04-24T07:26:28;17.40;95.10
19256;DHT22;9762;52.490;13.410;2023-04-24T07:28:54;17.50;94.70
19256;DHT22;9762;52.490;13.410;2023-04-24T07:31:20;17.60;94.30
19256;DHT22;9762;52.490;13.410;2023-04-24T07:33:46;17.70;93.80
19256;DHT22;9762;52.490;13.410;2023-04-24T07:36:12;17.80;93.80
19256;DHT22;9762;52.490;13.410;2023-04-24T07:38:45;17.80;93.80
19256;DHT22;9762;52.490;13.410;2023-04-24T07:41:14;17.90;93.60
19256;DHT22;9762;52.490;13.410;2023-04-24T07:43:40;18.00;93.30
19256;DHT22;9762;52.490;13.410;2023-04-24T07:46:07;18.00;92.50
19256;DHT22;9762;52.490;13.410;2023-04-24T07:48:33;18.10;92.10
19256;DHT22;9762;52.490;13.410;2023-04-24T07:50:58;18.20;91.50
19256;DHT22;9762;52.490;13.410;2023-04-24T07:53:24;18.20;91.00
19256;DHT22;9762;52.490;13.410;2023-04-24T07:55:50;18.20;90.90
19256;DHT22;9762;52.490;13.410;2023-04-24T07:58:16;18.30;90.50
19256;DHT22;9762;52.490;13.410;2023-04-24T08:00:41;18.20;89.70
19256;DHT22;9762;52.490;13.410;2023-04-24T08:03:07;18.30;90.00
19256;DHT22;9762;52.490;13.410;2023-04-24T08:05:33;18.40;88.90
19256;DHT22;9762;52.490;13.410;2023-04-24T08:07:58;18.50;88.00
19256;DHT22;9762;52.490;13.410;2023-04-24T08:10:24;18.60;87.30
19256;DHT22;9762;52.490;13.410;2023-04-24T08:12:50;18.60;86.40
19256;DHT22;9762;52.490;13.410;2023-04-24T08:15:16;18.70;86.80
19256;DHT22;9762;52.490;13.410;2023-04-24T08:17:42;18.80;86.60
19256;DHT22;9762;52.490;13.410;2023-04-24T08:20:09;19.00;86.50
19256;DHT22;9762;52.490;13.410;2023-04-24T08:22:39;19.00;88.50
19256;DHT22;9762;52.490;13.410;2023-04-24T08:25:06;19.00;89.80
19256;DHT22;9762;52.490;13.410;2023-04-24T08:27:31;19.10;90.10
19256;DHT22;9762;52.490;13.410;2023-04-24T08:29:57;19.20;81.20
19256;DHT22;9762;52.490;13.410;2023-04-24T08:32:24;19.30;81.30
19256;DHT22;9762;52.490;13.410;2023-04-24T08:34:49;19.40;89.90
19256;DHT22;9762;52.490;13.410;2023-04-24T08:37:18;19.50;89.00
19256;DHT22;9762;52.490;13.410;2023-04-24T08:39:43;19.60;88.00
19256;DHT22;9762;52.490;13.410;2023-04-24T08:42:09;19.70;87.70
19256;DHT22;9762;52.490;13.410;2023-04-24T08:44:36;19.70;87.90
19256;DHT22;9762;52.490;13.410;2023-04-24T08:47:03;19.60;87.00
19256;DHT22;9762;52.490;13.410;2023-04-24T08:49:28;19.80;86.70
19256;DHT22;9762;52.490;13.410;2023-04-24T08:51:55;19.80;76.00
19256;DHT22;9762;52.490;13.410;2023-04-24T08:54:21;19.90;74.10
19256;DHT22;9762;52.490;13.410;2023-04-24T08:56:48;20.00;72.90
19256;DHT22;9762;52.490;13.410;2023-04-24T08:59:16;20.10;72.80
19256;DHT22;9762;52.490;13.410;2023-04-24T09:01:44;20.20;73.30
19256;DHT22;9762;52.490;13.410;2023-04-24T09:04:10;20.20;73.20
19256;DHT22;9762;52.490;13.410;2023-04-24T09:06:39;20.20;73.30
19256;DHT22;9762;52.490;13.410;2023-04-24T09:09:05;20.20;73.60
19256;DHT22;9762;52.490;13.410;2023-04-24T09:11:32;20.30;73.90
19256;DHT22;9762;52.490;13.410;2023-04-24T09:14:01;20.30;74.50
19256;DHT22;9762;52.490;13.410;2023-04-24T09:16:27;20.30;74.50
19256;DHT22;9762;52.490;13.410;2023-04-24T09:18:53;20.40;74.60
19256;DHT22;9762;52.490;13.410;2023-04-24T09:21:22;20.40;73.60
19256;DHT22;9762;52.490;13.410;2023-04-24T09:23:58;20.30;73.80
19256;DHT22;9762;52.490;13.410;2023-04-24T09:26:25;20.30;73.20
19256;DHT22;9762;52.490;13.410;2023-04-24T09:28:50;20.30;73.10
19256;DHT22;9762;52.490;13.410;2023-04-24T09:31:18;20.30;73.60
19256;DHT22;9762;52.490;13.410;2023-04-24T09:34:00;20.30;74.10
19256;DHT22;9762;52.490;13.410;2023-04-24T09:36:41;20.30;74.10
19256;DHT22;9762;52.490;13.410;2023-04-24T09:39:17;20.30;74.60
19256;DHT22;9762;52.490;13.410;2023-04-24T09:41:50;20.30;74.90
19256;DHT22;9762;52.490;13.410;2023-04-24T09:44:18;20.20;75.10
19256;DHT22;9762;52.490;13.410;2023-04-24T09:46:52;20.20;75.20
19256;DHT22;9762;52.490;13.410;2023-04-24T09:49:26;20.20;74.90
19256;DHT22;9762;52.490;13.410;2023-04-24T09:52:05;20.10;76.20
19256;DHT22;9762;52.490;13.410;2023-04-24T09:54:31;20.10;74.80
19256;DHT22;9762;52.490;13.410;2023-04-24T09:56:57;20.10;73.60
19256;DHT22;9762;52.490;13.410;2023-04-24T09:59:23;20.10;73.90
19256;DHT22;9762;52.490;13.410;2023-04-24T10:01:49;20.10;73.80
19256;DHT22;9762;52.490;13.410;2023-04-24T10:04:26;20.10;73.70
19256;DHT22;9762;52.490;13.410;2023-04-24T10:06:54;20.10;73.70
19256;DHT22;9762;52.490;13.410;2023-04-24T10:09:22;20.20;74.40
19256;DHT22;9762;52.490;13.410;2023-04-24T10:11:50;20.20;74.50
19256;DHT22;9762;52.490;13.410;2023-04-24T10:14:21;20.30;74.70
19256;DHT22;9762;52.490;13.410;2023-04-24T10:16:47;20.50;75.10
19256;DHT22;9762;52.490;13.410;2023-04-24T10:19:14;20.50;74.60
19256;DHT22;9762;52.490;13.410;2023-04-24T10:21:41;20.60;84.90
19256;DHT22;9762;52.490;13.410;2023-04-24T10:24:08;20.70;84.80
19256;DHT22;9762;52.490;13.410;2023-04-24T10:26:35;20.80;84.20
19256;DHT22;9762;52.490;13.410;2023-04-24T10:29:02;20.90;84.00
19256;DHT22;9762;52.490;13.410;2023-04-24T10:31:31;20.90;83.50
19256;DHT22;9762;52.490;13.410;2023-04-24T10:33:58;21.00;82.30
19256;DHT22;9762;52.490;13.410;2023-04-24T10:36:25;20.90;81.80
19256;DHT22;9762;52.490;13.410;2023-04-24T10:38:54;20.80;81.90
19256;DHT22;9762;52.490;13.410;2023-04-24T10:41:21;20.80;81.80
19256;DHT22;9762;52.490;13.410;2023-04-24T10:44:11;20.70;81.20
19256;DHT22;9762;52.490;13.410;2023-04-24T10:46:37;20.50;81.40
19256;DHT22;9762;52.490;13.410;2023-04-24T10:49:05;20.40;80.90
19256;DHT22;9762;52.490;13.410;2023-04-24T10:51:53;20.40;80.80
19256;DHT22;9762;52.490;13.410;2023-04-24T10:54:29;20.30;80.90
19256;DHT22;9762;52.490;13.410;2023-04-24T10:59:43;20.10;82.50
19256;DHT22;9762;52.490;13.410;2023-04-24T11:02:09;20.10;84.20
19256;DHT22;9762;52.490;13.410;2023-04-24T11:04:35;20.00;85.00
19256;DHT22;9762;52.490;13.410;2023-04-24T11:07:03;19.90;84.10
19256;DHT22;9762;52.490;13.410;2023-04-24T11:12:12;21.00;73.00
19256;DHT22;9762;52.490;13.410;2023-04-24T11:20:03;24.50;63.70
19256;DHT22;9762;52.490;13.410;2023-04-24T11:22:33;25.00;61.40
19256;DHT22;9762;52.490;13.410;2023-04-24T11:25:01;25.00;60.00
19256;DHT22;9762;52.490;13.410;2023-04-24T11:27:45;24.80;60.00
19256;DHT22;9762;52.490;13.410;2023-04-24T11:30:18;24.50;60.10
19256;DHT22;9762;52.490;13.410;2023-04-24T11:32:47;24.20;60.70
19256;DHT22;9762;52.490;13.410;2023-04-24T11:35:17;23.70;61.80
19256;DHT22;9762;52.490;13.410;2023-04-24T11:37:47;23.30;77.70
19256;DHT22;9762;52.490;13.410;2023-04-24T11:40:17;22.80;82.20
19256;DHT22;9762;52.490;13.410;2023-04-24T11:42:47;22.40;88.60
19256;DHT22;9762;52.490;13.410;2023-04-24T11:45:13;22.30;90.10
19256;DHT22;9762;52.490;13.410;2023-04-24T11:47:40;22.80;72.80
19256;DHT22;9762;52.490;13.410;2023-04-24T11:50:08;23.40;71.90
19256;DHT22;9762;52.490;13.410;2023-04-24T11:52:37;23.80;70.70
19256;DHT22;9762;52.490;13.410;2023-04-24T11:55:04;24.30;69.00
19256;DHT22;9762;52.490;13.410;2023-04-24T11:57:30;24.90;68.00
19256;DHT22;9762;52.490;13.410;2023-04-24T12:00:03;25.40;64.50
19256;DHT22;9762;52.490;13.410;2023-04-24T12:02:30;26.10;63.10
19256;DHT22;9762;52.490;13.410;2023-04-24T12:04:56;26.10;61.20
19256;DHT22;9762;52.490;13.410;2023-04-24T12:07:23;26.00;62.20
19256;DHT22;9762;52.490;13.410;2023-04-24T12:09:56;26.10;62.40
19256;DHT22;9762;52.490;13.410;2023-04-24T12:12:26;26.70;67.60
19256;DHT22;9762;52.490;13.410;2023-04-24T12:14:56;27.50;59.90
19256;DHT22;9762;52.490;13.410;2023-04-24T12:17:28;28.40;59.70
19256;DHT22;9762;52.490;13.410;2023-04-24T12:20:01;29.10;58.20
19256;DHT22;9762;52.490;13.410;2023-04-24T12:25:03;31.10;52.40
19256;DHT22;9762;52.490;13.410;2023-04-24T12:27:33;31.30;51.90
19256;DHT22;9762;52.490;13.410;2023-04-24T12:32:27;30.90;48.70
19256;DHT22;9762;52.490;13.410;2023-04-24T12:34:53;30.50;49.50
19256;DHT22;9762;52.490;13.410;2023-04-24T12:37:20;30.60;49.40
19256;DHT22;9762;52.490;13.410;2023-04-24T12:40:15;30.40;48.10
19256;DHT22;9762;52.490;13.410;2023-04-24T12:45:14;29.20;47.10
19256;DHT22;9762;52.490;13.410;2023-04-24T12:47:40;28.70;48.00
19256;DHT22;9762;52.490;13.410;2023-04-24T12:50:12;28.20;46.20
19256;DHT22;9762;52.490;13.410;2023-04-24T12:52:38;27.60;45.40
19256;DHT22;9762;52.490;13.410;2023-04-24T12:55:05;27.20;45.60
19256;DHT22;9762;52.490;13.410;2023-04-24T12:59:59;26.20;45.50
19256;DHT22;9762;52.490;13.410;2023-04-24T13:02:27;25.80;47.00
19256;DHT22;9762;52.490;13.410;2023-04-24T13:04:53;25.30;47.00
19256;DHT22;9762;52.490;13.410;2023-04-24T13:07:19;25.00;46.50
19256;DHT22;9762;52.490;13.410;2023-04-24T13:09:45;24.80;47.20
19256;DHT22;9762;52.490;13.410;2023-04-24T13:12:12;24.60;47.60
19256;DHT22;9762;52.490;13.410;2023-04-24T13:14:38;24.50;47.50
19256;DHT22;9762;52.490;13.410;2023-04-24T13:17:03;24.40;47.20
19256;DHT22;9762;52.490;13.410;2023-04-24T13:19:34;24.60;46.30
19256;DHT22;9762;52.490;13.410;2023-04-24T13:22:00;24.90;46.10
19256;DHT22;9762;52.490;13.410;2023-04-24T13:24:26;25.20;45.60
19256;DHT22;9762;52.490;13.410;2023-04-24T13:26:55;25.50;45.40
19256;DHT22;9762;52.490;13.410;2023-04-24T13:29:22;25.80;45.10
19256;DHT22;9762;52.490;13.410;2023-04-24T13:31:50;26.10;44.90
19256;DHT22;9762;52.490;13.410;2023-04-24T13:34:19;26.40;44.10
19256;DHT22;9762;52.490;13.410;2023-04-24T13:36:45;26.40;43.30
19256;DHT22;9762;52.490;13.410;2023-04-24T13:39:11;26.50;42.90
19256;DHT22;9762;52.490;13.410;2023-04-24T13:41:37;26.60;42.60
19256;DHT22;9762;52.490;13.410;2023-04-24T13:44:03;26.80;41.80
19256;DHT22;9762;52.490;13.410;2023-04-24T13:46:29;27.00;42.10
19256;DHT22;9762;52.490;13.410;2023-04-24T13:48:56;27.20;41.50
19256;DHT22;9762;52.490;13.410;2023-04-24T13:51:24;27.10;41.70
19256;DHT22;9762;52.490;13.410;2023-04-24T13:53:52;26.80;42.20
19256;DHT22;9762;52.490;13.410;2023-04-24T13:56:18;26.70;42.20
19256;DHT22;9762;52.490;13.410;2023-04-24T13:58:44;26.70;41.20
19256;DHT22;9762;52.490;13.410;2023-04-24T14:01:10;26.60;40.50
19256;DHT22;9762;52.490;13.410;2023-04-24T14:03:37;26.40;41.70
19256;DHT22;9762;52.490;13.410;2023-04-24T14:06:03;26.40;42.60
19256;DHT22;9762;52.490;13.410;2023-04-24T14:08:29;26.30;42.40
19256;DHT22;9762;52.490;13.410;2023-04-24T14:10:55;26.10;42.80
19256;DHT22;9762;52.490;13.410;2023-04-24T14:13:20;26.10;42.80
19256;DHT22;9762;52.490;13.410;2023-04-24T14:15:46;26.10;42.70
19256;DHT22;9762;52.490;13.410;2023-04-24T14:18:12;26.00;42.80
19256;DHT22;9762;52.490;13.410;2023-04-24T14:20:37;25.90;42.80
19256;DHT22;9762;52.490;13.410;2023-04-24T14:23:03;25.80;42.90
19256;DHT22;9762;52.490;13.410;2023-04-24T14:25:29;25.70;43.60
19256;DHT22;9762;52.490;13.410;2023-04-24T14:27:55;25.50;43.50
19256;DHT22;9762;52.490;13.410;2023-04-24T14:30:21;25.40;43.40
19256;DHT22;9762;52.490;13.410;2023-04-24T14:32:47;25.40;43.50
19256;DHT22;9762;52.490;13.410;2023-04-24T14:35:12;25.40;42.80
19256;DHT22;9762;52.490;13.410;2023-04-24T14:37:38;25.50;42.80
19256;DHT22;9762;52.490;13.410;2023-04-24T14:42:33;25.20;42.20
19256;DHT22;9762;52.490;13.410;2023-04-24T14:44:59;24.90;43.00
19256;DHT22;9762;52.490;13.410;2023-04-24T14:47:25;24.50;43.70
19256;DHT22;9762;52.490;13.410;2023-04-24T14:49:51;24.30;44.60
19256;DHT22;9762;52.490;13.410;2023-04-24T14:52:16;24.30;45.00
19256;DHT22;9762;52.490;13.410;2023-04-24T14:54:42;24.50;45.30
19256;DHT22;9762;52.490;13.410;2023-04-24T14:57:08;24.60;45.00
19256;DHT22;9762;52.490;13.410;2023-04-24T14:59:34;24.60;45.00
19256;DHT22;9762;52.490;13.410;2023-04-24T15:02:00;24.40;45.10
19256;DHT22;9762;52.490;13.410;2023-04-24T15:04:27;24.20;45.30
19256;DHT22;9762;52.490;13.410;2023-04-24T15:06:54;24.00;45.70
19256;DHT22;9762;52.490;13.410;2023-04-24T15:09:21;23.60;50.10
19256;DHT22;9762;52.490;13.410;2023-04-24T15:11:48;23.30;50.00
19256;DHT22;9762;52.490;13.410;2023-04-24T15:14:14;23.10;51.90
19256;DHT22;9762;52.490;13.410;2023-04-24T15:16:40;22.90;50.20
19256;DHT22;9762;52.490;13.410;2023-04-24T15:19:06;22.90;49.10
19256;DHT22;9762;52.490;13.410;2023-04-24T15:21:32;22.90;49.00
19256;DHT22;9762;52.490;13.410;2023-04-24T15:23:57;22.90;49.10
19256;DHT22;9762;52.490;13.410;2023-04-24T15:26:24;22.70;49.20
19256;DHT22;9762;52.490;13.410;2023-04-24T15:28:51;22.70;48.90
19256;DHT22;9762;52.490;13.410;2023-04-24T15:31:17;22.80;49.30
19256;DHT22;9762;52.490;13.410;2023-04-24T15:33:43;22.70;47.90
19256;DHT22;9762;52.490;13.410;2023-04-24T15:36:09;22.50;60.80
19256;DHT22;9762;52.490;13.410;2023-04-24T15:38:35;22.30;48.50
19256;DHT22;9762;52.490;13.410;2023-04-24T15:41:01;22.00;49.00
19256;DHT22;9762;52.490;13.410;2023-04-24T15:43:26;21.70;49.70
19256;DHT22;9762;52.490;13.410;2023-04-24T15:45:55;21.50;50.00
19256;DHT22;9762;52.490;13.410;2023-04-24T15:48:21;21.30;50.50
19256;DHT22;9762;52.490;13.410;2023-04-24T15:50:46;21.10;50.90